createdAt,value
2017-07-25T00:00:39.055Z,19.50
2017-07-25T00:03:05.715Z,21.48
2017-07-25T00:05:32.378Z,24.20
2017-07-25T00:07:59.044Z,22.00
2017-07-25T00:10:25.707Z,21.17
2017-07-25T00:12:52.377Z,23.83
2017-07-25T00:15:19.035Z,21.35
2017-07-25T00:17:45.702Z,21.92
2017-07-25T00:20:12.364Z,22.35
2017-07-25T00:22:39.025Z,23.15
2017-07-25T00:25:05.692Z,18.67
2017-07-25T00:27:32.355Z,18.27
2017-07-25T00:29:59.020Z,17.58
2017-07-25T00:32:25.679Z,18.70
2017-07-25T00:34:52.377Z,19.30
2017-07-25T00:37:19.039Z,18.70
2017-07-25T00:39:45.731Z,19.87
2017-07-25T00:42:12.400Z,18.40
2017-07-25T00:44:39.099Z,18.65
2017-07-25T00:47:05.772Z,18.30
2017-07-25T00:49:32.438Z,18.17
2017-07-25T00:51:59.109Z,16.87
2017-07-25T00:54:25.767Z,17.87
2017-07-25T00:56:52.439Z,20.67
2017-07-25T00:59:19.103Z,17.48
2017-07-25T01:01:45.771Z,17.42
2017-07-25T01:04:12.431Z,16.00
2017-07-25T01:06:39.098Z,17.62
2017-07-25T01:09:05.767Z,18.25
2017-07-25T01:11:32.431Z,16.23
2017-07-25T01:13:59.096Z,18.15
2017-07-25T01:16:25.764Z,15.73
2017-07-25T01:18:52.433Z,17.00
2017-07-25T01:21:19.094Z,16.00
2017-07-25T01:23:45.759Z,17.40
2017-07-25T01:26:12.447Z,16.73
2017-07-25T01:28:39.127Z,18.45
2017-07-25T01:31:05.813Z,16.83
2017-07-25T01:33:32.478Z,18.35
2017-07-25T01:35:59.168Z,18.33
2017-07-25T01:38:25.835Z,19.15
2017-07-25T01:40:52.519Z,19.70
2017-07-25T01:43:19.184Z,18.83
2017-07-25T01:45:45.875Z,22.05
2017-07-25T01:48:12.540Z,22.27
2017-07-25T01:50:39.231Z,21.80
2017-07-25T01:53:05.903Z,20.65
2017-07-25T01:55:32.592Z,21.98
2017-07-25T01:57:59.258Z,23.50
2017-07-25T02:00:25.950Z,23.02
2017-07-25T02:02:52.618Z,22.52
2017-07-25T02:05:19.284Z,24.00
2017-07-25T02:07:45.948Z,24.30
2017-07-25T02:10:12.608Z,20.65
2017-07-25T02:12:39.271Z,21.23
2017-07-25T02:15:05.952Z,21.25
2017-07-25T02:17:32.641Z,23.02
2017-07-25T02:19:59.303Z,19.83
2017-07-25T02:22:26.814Z,23.17
2017-07-25T02:24:53.480Z,20.90
2017-07-25T02:27:20.170Z,22.83
2017-07-25T02:29:46.832Z,21.37
2017-07-25T02:32:13.519Z,21.05
2017-07-25T02:34:40.183Z,20.40
2017-07-25T02:37:06.871Z,20.80
2017-07-25T02:39:33.544Z,22.48
2017-07-25T02:42:00.234Z,22.23
2017-07-25T02:44:26.902Z,24.27
2017-07-25T02:46:53.587Z,22.40
2017-07-25T02:49:20.259Z,22.98
2017-07-25T02:51:46.947Z,23.38
2017-07-25T02:54:13.616Z,20.75
2017-07-25T02:56:40.312Z,22.35
2017-07-25T02:59:06.970Z,20.10
2017-07-25T03:01:33.654Z,21.65
2017-07-25T03:04:00.317Z,20.95
2017-07-25T03:06:27.006Z,17.85
2017-07-25T03:08:53.676Z,17.10
2017-07-25T03:11:20.364Z,17.87
2017-07-25T03:13:47.035Z,19.98
2017-07-25T03:16:13.723Z,18.60
2017-07-25T03:18:40.386Z,20.15
2017-07-25T03:21:07.055Z,19.40
2017-07-25T03:23:39.519Z,21.48
2017-07-25T03:26:06.183Z,26.20
2017-07-25T03:28:32.851Z,25.80
2017-07-25T03:30:59.515Z,25.95
2017-07-25T03:33:26.192Z,32.70
2017-07-25T03:35:52.863Z,31.48
2017-07-25T03:38:19.534Z,28.05
2017-07-25T03:40:46.203Z,27.02
2017-07-25T03:43:12.862Z,29.90
2017-07-25T03:45:39.523Z,28.60
2017-07-25T03:48:06.193Z,23.65
2017-07-25T03:50:32.855Z,23.50
2017-07-25T03:52:59.548Z,24.02
2017-07-25T03:55:26.210Z,25.55
2017-07-25T03:57:52.895Z,20.60
2017-07-25T04:00:19.563Z,20.65
2017-07-25T04:02:46.255Z,19.98
2017-07-25T04:05:12.928Z,22.70
2017-07-25T04:07:39.615Z,22.67
2017-07-25T04:10:06.275Z,21.98
2017-07-25T04:12:32.960Z,18.12
2017-07-25T04:14:59.624Z,20.45
2017-07-25T04:17:26.311Z,21.23
2017-07-25T04:19:52.979Z,18.77
2017-07-25T04:22:19.664Z,23.38
2017-07-25T04:24:46.327Z,20.60
2017-07-25T04:27:13.015Z,19.37
2017-07-25T04:29:39.696Z,19.00
2017-07-25T04:32:06.393Z,19.62
2017-07-25T04:34:33.059Z,19.73
2017-07-25T04:36:59.743Z,19.90
2017-07-25T04:39:26.407Z,19.40
2017-07-25T04:41:53.067Z,22.98
2017-07-25T04:44:19.732Z,21.40
2017-07-25T04:46:46.395Z,20.15
2017-07-25T04:49:13.055Z,20.30
2017-07-25T04:51:39.715Z,21.45
2017-07-25T04:54:06.380Z,21.48
2017-07-25T04:56:33.042Z,19.62
2017-07-25T04:58:59.703Z,19.85
2017-07-25T05:01:26.370Z,17.42
2017-07-25T05:03:53.036Z,19.37
2017-07-25T05:06:19.717Z,20.23
2017-07-25T05:08:46.383Z,21.73
2017-07-25T05:11:13.046Z,18.00
2017-07-25T05:13:39.711Z,18.17
2017-07-25T05:16:06.375Z,19.12
2017-07-25T05:18:39.019Z,17.33
2017-07-25T05:21:05.680Z,19.95
2017-07-25T05:23:32.347Z,17.75
2017-07-25T05:25:59.011Z,18.92
2017-07-25T05:28:25.679Z,16.73
2017-07-25T05:30:52.357Z,17.90
2017-07-25T05:33:19.028Z,17.55
2017-07-25T05:35:45.703Z,17.50
2017-07-25T05:38:12.363Z,18.95
2017-07-25T05:40:39.027Z,19.55
2017-07-25T05:43:05.690Z,21.05
2017-07-25T05:45:32.364Z,20.50
2017-07-25T05:47:59.051Z,20.98
2017-07-25T05:50:25.711Z,24.25
2017-07-25T05:52:52.399Z,24.48
2017-07-25T05:55:19.064Z,24.33
2017-07-25T05:57:45.751Z,21.35
2017-07-25T06:00:12.412Z,20.95
2017-07-25T06:02:39.071Z,25.75
2017-07-25T06:05:05.740Z,25.08
2017-07-25T06:07:32.403Z,22.60
2017-07-25T06:09:59.070Z,23.00
2017-07-25T06:12:25.740Z,25.05
2017-07-25T06:14:52.412Z,24.42
2017-07-25T06:17:19.076Z,20.77
2017-07-25T06:19:45.743Z,21.20
2017-07-25T06:22:12.412Z,19.25
2017-07-25T06:24:39.071Z,20.37
2017-07-25T06:27:05.735Z,20.85
2017-07-25T06:29:32.401Z,22.75
2017-07-25T06:31:59.073Z,23.65
2017-07-25T06:34:25.735Z,20.58
2017-07-25T06:36:52.399Z,21.95
2017-07-25T06:39:19.059Z,22.95
2017-07-25T06:41:45.722Z,22.80
2017-07-25T06:44:12.397Z,19.95
2017-07-25T06:46:39.059Z,23.58
2017-07-25T06:49:05.727Z,21.02
2017-07-25T06:51:32.391Z,20.42
2017-07-25T06:53:59.056Z,21.35
2017-07-25T06:56:25.722Z,19.42
2017-07-25T06:58:52.391Z,18.92
2017-07-25T07:01:19.054Z,20.30
2017-07-25T07:03:45.723Z,19.05
2017-07-25T07:06:12.391Z,17.60
2017-07-25T07:08:39.051Z,16.75
2017-07-25T07:11:05.720Z,18.15
2017-07-25T07:13:32.394Z,17.00
2017-07-25T07:15:59.055Z,16.42
2017-07-25T07:18:25.720Z,15.55
2017-07-25T07:20:52.415Z,16.85
2017-07-25T07:23:19.084Z,18.42
2017-07-25T07:25:45.784Z,17.37
2017-07-25T07:28:12.447Z,16.77
2017-07-25T07:30:39.110Z,18.52
2017-07-25T07:33:05.805Z,16.80
2017-07-25T07:35:32.471Z,18.00
2017-07-25T07:37:59.159Z,17.87
2017-07-25T07:40:25.832Z,18.17
2017-07-25T07:42:52.544Z,17.23
2017-07-25T07:45:19.209Z,19.17
2017-07-25T07:47:45.888Z,16.10
2017-07-25T07:50:12.567Z,17.35
2017-07-25T07:52:39.235Z,15.48
2017-07-25T07:55:06.022Z,15.63
2017-07-25T07:57:32.687Z,17.35
2017-07-25T07:59:59.371Z,18.25
2017-07-25T08:02:26.036Z,15.98
2017-07-25T08:04:52.730Z,15.32
2017-07-25T08:07:19.391Z,17.30
2017-07-25T08:09:46.050Z,14.45
2017-07-25T08:12:12.711Z,14.80
2017-07-25T08:14:39.371Z,14.27
2017-07-25T08:17:06.060Z,15.02
2017-07-25T08:19:32.724Z,14.68
2017-07-25T08:21:59.415Z,15.25
2017-07-25T08:24:26.078Z,14.45
2017-07-25T08:26:52.811Z,14.38
2017-07-25T08:29:19.477Z,12.70
2017-07-25T08:31:46.135Z,11.52
2017-07-25T08:34:12.799Z,10.52
2017-07-25T08:36:39.455Z,9.95
2017-07-25T08:39:06.180Z,10.40
2017-07-25T08:41:32.843Z,10.40
2017-07-25T08:43:59.535Z,11.00
2017-07-25T08:46:26.203Z,10.63
2017-07-25T08:48:52.867Z,12.15
2017-07-25T08:51:19.527Z,10.60
2017-07-25T08:53:46.192Z,11.00
2017-07-25T08:56:12.847Z,8.55
2017-07-25T08:58:39.511Z,10.60
2017-07-25T09:01:06.248Z,11.77
2017-07-25T09:03:32.906Z,13.52
2017-07-25T09:05:59.567Z,12.77
2017-07-25T09:08:26.233Z,12.05
2017-07-25T09:10:52.895Z,11.70
2017-07-25T09:13:19.556Z,10.55
2017-07-25T09:15:46.224Z,12.13
2017-07-25T09:18:12.887Z,11.20
2017-07-25T09:20:39.547Z,10.55
2017-07-25T09:23:16.139Z,9.73
2017-07-25T09:25:42.795Z,9.45
2017-07-25T09:28:09.451Z,10.25
2017-07-25T09:30:36.132Z,11.02
2017-07-25T09:33:02.799Z,10.30
2017-07-25T09:35:29.486Z,11.77
2017-07-25T09:37:56.160Z,10.93
2017-07-25T09:40:22.842Z,9.40
2017-07-25T09:42:49.500Z,9.55
2017-07-25T09:45:16.195Z,9.65
2017-07-25T09:47:42.851Z,8.70
2017-07-25T09:50:09.544Z,8.02
2017-07-25T09:52:36.208Z,8.80
2017-07-25T09:55:02.917Z,8.43
2017-07-25T09:57:29.580Z,8.15
2017-07-25T09:59:56.247Z,8.57
2017-07-25T10:02:23.070Z,9.77
2017-07-25T10:04:49.731Z,8.65
2017-07-25T10:07:16.419Z,10.60
2017-07-25T10:09:43.079Z,8.23
2017-07-25T10:12:09.762Z,9.02
2017-07-25T10:14:36.483Z,8.18
2017-07-25T10:17:03.175Z,7.57
2017-07-25T10:19:29.835Z,7.68
2017-07-25T10:21:56.499Z,8.15
2017-07-25T10:24:23.159Z,7.77
2017-07-25T10:26:49.811Z,8.80
2017-07-25T10:29:16.466Z,9.70
2017-07-25T10:31:43.131Z,10.10
2017-07-25T10:34:09.819Z,9.13
2017-07-25T10:36:36.487Z,8.50
2017-07-25T10:39:03.175Z,8.98
2017-07-25T10:41:29.844Z,9.95
2017-07-25T10:43:56.511Z,9.20
2017-07-25T10:46:23.184Z,7.75
2017-07-25T10:48:49.840Z,7.87
2017-07-25T10:51:16.528Z,8.10
2017-07-25T10:53:43.213Z,8.30
2017-07-25T10:56:09.906Z,9.35
2017-07-25T10:58:36.567Z,9.05
2017-07-25T11:01:03.233Z,8.52
2017-07-25T11:03:29.902Z,7.72
2017-07-25T11:05:56.569Z,7.95
2017-07-25T11:08:23.233Z,7.90
2017-07-25T11:10:49.900Z,8.95
2017-07-25T11:13:16.613Z,9.60
2017-07-25T11:15:43.276Z,9.40
2017-07-25T11:18:09.972Z,8.65
2017-07-25T11:20:36.667Z,8.15
2017-07-25T11:23:03.319Z,8.85
2017-07-25T11:25:29.986Z,8.07
2017-07-25T11:27:56.647Z,7.75
2017-07-25T11:30:23.315Z,8.80
2017-07-25T11:32:49.984Z,9.00
2017-07-25T11:35:16.671Z,8.60
2017-07-25T11:37:43.339Z,9.32
2017-07-25T11:40:10.043Z,9.07
2017-07-25T11:42:36.707Z,9.43
2017-07-25T11:45:03.364Z,9.80
2017-07-25T11:47:30.032Z,9.40
2017-07-25T11:52:29.943Z,10.57
2017-07-25T11:54:56.591Z,9.43
2017-07-25T11:57:23.252Z,10.03
2017-07-25T11:59:49.907Z,9.70
2017-07-25T12:02:16.591Z,10.57
2017-07-25T12:04:43.250Z,10.33
2017-07-25T12:07:09.956Z,10.80
2017-07-25T12:09:36.619Z,11.70
2017-07-25T12:12:03.279Z,11.43
2017-07-25T12:14:29.935Z,10.50
2017-07-25T12:16:56.602Z,10.50
2017-07-25T12:19:23.295Z,11.47
2017-07-25T12:21:49.958Z,11.50
2017-07-25T12:24:16.644Z,10.67
2017-07-25T12:26:43.302Z,12.67
2017-07-25T12:29:09.987Z,11.10
2017-07-25T12:31:36.648Z,11.73
2017-07-25T12:34:03.340Z,12.07
2017-07-25T12:36:30.003Z,12.00
2017-07-25T12:38:56.664Z,13.43
2017-07-25T12:41:23.323Z,13.67
2017-07-25T12:43:49.986Z,16.47
2017-07-25T12:46:16.687Z,17.08
2017-07-25T12:48:43.360Z,17.20
2017-07-25T12:51:10.075Z,15.60
2017-07-25T12:53:36.743Z,15.93
2017-07-25T12:56:03.410Z,16.48
2017-07-25T12:58:30.085Z,17.33
2017-07-25T13:01:02.743Z,15.18
2017-07-25T13:03:30.177Z,16.65
2017-07-25T13:05:56.835Z,15.53
2017-07-25T13:08:23.506Z,14.50
2017-07-25T13:10:50.183Z,15.80
2017-07-25T13:13:16.843Z,15.10
2017-07-25T13:15:43.510Z,14.40
2017-07-25T13:18:10.175Z,14.57
2017-07-25T13:20:36.874Z,14.80
2017-07-25T13:23:03.532Z,16.33
2017-07-25T13:25:30.231Z,16.48
2017-07-25T13:27:56.935Z,17.10
2017-07-25T13:30:23.611Z,16.10
2017-07-25T13:32:50.323Z,17.00
2017-07-25T13:35:16.998Z,15.52
2017-07-25T13:37:43.666Z,15.27
2017-07-25T13:40:10.340Z,15.57
2017-07-25T13:42:37.012Z,14.10
2017-07-25T13:45:03.715Z,16.42
2017-07-25T13:47:30.382Z,15.70
2017-07-25T13:49:57.087Z,15.70
2017-07-25T13:52:23.767Z,14.10
2017-07-25T13:54:50.467Z,16.23
2017-07-25T13:57:17.140Z,16.50
2017-07-25T13:59:43.808Z,16.02
2017-07-25T14:02:10.499Z,16.45
2017-07-25T14:04:37.175Z,14.63
2017-07-25T14:07:03.891Z,15.30
2017-07-25T14:09:30.584Z,16.42
2017-07-25T14:11:57.297Z,15.93
2017-07-25T14:14:23.967Z,16.30
2017-07-25T14:16:50.914Z,16.80
2017-07-25T14:19:17.587Z,17.85
2017-07-25T14:21:44.259Z,15.38
2017-07-25T14:24:10.960Z,14.25
2017-07-25T14:26:37.659Z,11.68
2017-07-25T14:29:04.371Z,10.52
2017-07-25T14:31:31.041Z,9.65
2017-07-25T14:33:57.699Z,9.50
2017-07-25T14:36:24.363Z,8.77
2017-07-25T14:38:51.036Z,9.00
2017-07-25T14:41:17.739Z,9.20
2017-07-25T14:43:44.403Z,9.48
2017-07-25T14:46:11.058Z,9.30
2017-07-25T14:48:37.715Z,8.93
2017-07-25T14:51:04.397Z,9.82
2017-07-25T14:53:31.059Z,9.23
2017-07-25T14:55:57.725Z,9.50
2017-07-25T14:58:24.403Z,9.45
2017-07-25T15:00:51.075Z,7.45
2017-07-25T15:03:17.763Z,7.05
2017-07-25T15:05:44.425Z,6.03
2017-07-25T15:08:11.234Z,6.75
2017-07-25T15:10:37.887Z,6.43
2017-07-25T15:13:04.544Z,6.60
2017-07-25T15:15:31.235Z,6.35
2017-07-25T15:17:57.891Z,6.53
2017-07-25T15:20:24.547Z,6.40
2017-07-25T15:22:51.223Z,7.30
2017-07-25T15:25:17.883Z,8.18
2017-07-25T15:27:44.924Z,7.70
2017-07-25T15:30:11.602Z,7.55
2017-07-25T15:32:38.296Z,7.40
2017-07-25T15:35:04.963Z,6.40
2017-07-25T15:37:31.624Z,6.65
2017-07-25T15:39:58.299Z,6.43
2017-07-25T15:42:24.983Z,6.47
2017-07-25T15:44:51.667Z,6.50
2017-07-25T15:47:18.341Z,7.47
2017-07-25T15:49:45.032Z,6.82
2017-07-25T15:52:11.703Z,7.10
2017-07-25T15:54:38.396Z,6.43
2017-07-25T15:57:05.055Z,6.75
2017-07-25T15:59:31.716Z,6.87
2017-07-25T16:01:58.383Z,6.20
2017-07-25T16:04:25.043Z,6.07
2017-07-25T16:06:51.699Z,7.50
2017-07-25T16:09:18.364Z,6.40
2017-07-25T16:11:45.043Z,6.10
2017-07-25T16:14:11.703Z,7.30
2017-07-25T16:16:38.396Z,7.30
2017-07-25T16:19:05.059Z,7.30
2017-07-25T16:21:31.720Z,6.55
2017-07-25T16:23:58.382Z,5.80
2017-07-25T16:26:25.121Z,6.72
2017-07-25T16:28:51.800Z,6.68
2017-07-25T16:31:18.452Z,6.50
2017-07-25T16:33:45.168Z,6.43
2017-07-25T16:36:11.823Z,7.35
2017-07-25T16:38:38.483Z,5.35
2017-07-25T16:41:05.148Z,7.12
2017-07-25T16:43:31.795Z,5.60
2017-07-25T16:45:58.490Z,6.10
2017-07-25T16:48:25.143Z,6.97
2017-07-25T16:50:51.799Z,5.97
2017-07-25T16:53:18.454Z,6.65
2017-07-25T16:55:45.108Z,5.90
2017-07-25T16:58:11.775Z,4.72
2017-07-25T17:00:38.440Z,5.53
2017-07-25T17:03:05.119Z,4.75
2017-07-25T17:05:31.771Z,5.07
2017-07-25T17:07:58.434Z,5.22
2017-07-25T17:10:25.095Z,4.70
2017-07-25T17:12:51.755Z,4.70
2017-07-25T17:15:18.412Z,4.60
2017-07-25T17:17:45.084Z,5.65
2017-07-25T17:20:11.748Z,6.05
2017-07-25T17:22:38.407Z,6.05
2017-07-25T17:25:05.060Z,6.40
2017-07-25T17:27:31.730Z,6.47
2017-07-25T17:29:58.420Z,6.47
2017-07-25T17:32:25.070Z,8.98
2017-07-25T17:34:51.751Z,8.63
2017-07-25T17:37:18.426Z,8.52
2017-07-25T17:39:45.079Z,9.25
2017-07-25T17:42:11.765Z,9.73
2017-07-25T17:44:38.427Z,8.07
2017-07-25T17:47:05.088Z,10.95
2017-07-25T17:49:31.752Z,10.35
2017-07-25T17:51:58.439Z,9.52
2017-07-25T17:54:31.079Z,9.45
2017-07-25T17:56:57.768Z,10.48
2017-07-25T17:59:24.423Z,9.80
2017-07-25T18:01:51.091Z,11.23
2017-07-25T18:04:17.759Z,10.20
2017-07-25T18:06:44.431Z,10.27
2017-07-25T18:09:11.119Z,10.20
2017-07-25T18:11:37.786Z,11.65
2017-07-25T18:14:04.476Z,10.77
2017-07-25T18:16:31.135Z,9.48
2017-07-25T18:18:57.819Z,10.00
2017-07-25T18:21:24.475Z,9.82
2017-07-25T18:23:51.164Z,9.50
2017-07-25T18:26:17.818Z,9.45
2017-07-25T18:28:44.476Z,9.52
2017-07-25T18:31:11.144Z,10.23
2017-07-25T18:33:37.811Z,9.80
2017-07-25T18:36:04.467Z,8.95
2017-07-25T18:38:31.132Z,9.63
2017-07-25T18:40:57.825Z,10.30
2017-07-25T18:43:24.483Z,9.50
2017-07-25T18:45:51.180Z,10.73
2017-07-25T18:48:17.835Z,9.52
2017-07-25T18:50:44.552Z,10.68
2017-07-25T18:53:11.226Z,10.40
2017-07-25T18:55:37.883Z,9.15
2017-07-25T18:58:04.539Z,9.40
2017-07-25T19:00:31.195Z,9.52
2017-07-25T19:02:57.863Z,10.40
2017-07-25T19:05:24.525Z,10.13
2017-07-25T19:07:51.191Z,10.05
2017-07-25T19:10:17.851Z,8.02
2017-07-25T19:12:44.511Z,8.73
2017-07-25T19:15:11.173Z,7.53
2017-07-25T19:17:37.852Z,8.80
2017-07-25T19:20:04.523Z,7.93
2017-07-25T19:22:31.227Z,9.05
2017-07-25T19:24:57.889Z,8.55
2017-07-25T19:27:24.566Z,8.10
2017-07-25T19:29:51.227Z,7.62
2017-07-25T19:32:17.892Z,10.40
2017-07-25T19:34:44.551Z,8.40
2017-07-25T19:37:11.208Z,7.90
2017-07-25T19:39:37.868Z,8.13
2017-07-25T19:42:04.534Z,7.95
2017-07-25T19:44:31.191Z,8.18
2017-07-25T19:46:57.844Z,7.97
2017-07-25T19:49:24.506Z,8.63
2017-07-25T19:51:51.178Z,10.52
2017-07-25T19:54:17.844Z,9.85
2017-07-25T19:56:44.532Z,7.65
2017-07-25T19:59:11.204Z,8.80
2017-07-25T20:01:37.890Z,8.52
2017-07-25T20:04:04.547Z,8.98
2017-07-25T20:06:31.237Z,9.85
2017-07-25T20:08:57.887Z,8.32
2017-07-25T20:11:24.566Z,9.07
2017-07-25T20:13:51.251Z,10.70
2017-07-25T20:16:17.906Z,9.13
2017-07-25T20:18:44.565Z,8.50
2017-07-25T20:21:11.227Z,9.10
2017-07-25T20:23:37.915Z,9.85
2017-07-25T20:26:04.578Z,9.35
2017-07-25T20:28:31.267Z,8.35
2017-07-25T20:30:57.921Z,8.50
2017-07-25T20:33:24.627Z,9.40
2017-07-25T20:35:51.287Z,12.07
2017-07-25T20:38:17.971Z,8.43
2017-07-25T20:40:44.628Z,8.82
2017-07-25T20:43:11.324Z,8.98
2017-07-25T20:45:38.011Z,9.25
2017-07-25T20:48:04.673Z,9.57
2017-07-25T20:50:31.339Z,8.88
2017-07-25T20:52:57.991Z,9.25
2017-07-25T20:55:24.664Z,10.90
2017-07-25T20:57:51.327Z,11.07
2017-07-25T21:00:18.037Z,10.75
2017-07-25T21:02:44.696Z,9.43
2017-07-25T21:05:11.380Z,9.63
2017-07-25T21:07:38.043Z,9.27
2017-07-25T21:10:04.731Z,12.00
2017-07-25T21:12:31.391Z,7.78
2017-07-25T21:14:58.071Z,9.73
2017-07-25T21:17:24.731Z,11.48
2017-07-25T21:19:51.415Z,8.57
2017-07-25T21:22:18.072Z,9.30
2017-07-25T21:24:44.780Z,9.50
2017-07-25T21:27:11.434Z,9.68
2017-07-25T21:29:38.093Z,8.20
2017-07-25T21:32:04.751Z,8.93
2017-07-25T21:34:31.416Z,8.40
2017-07-25T21:36:58.073Z,9.20
2017-07-25T21:39:24.730Z,9.82
2017-07-25T21:41:51.414Z,10.40
2017-07-25T21:44:18.076Z,9.43
2017-07-25T21:46:44.761Z,9.25
2017-07-25T21:49:11.420Z,8.45
2017-07-25T21:51:38.142Z,8.85
2017-07-25T21:54:04.793Z,9.90
2017-07-25T21:56:31.475Z,9.25
2017-07-25T21:58:58.131Z,9.40
2017-07-25T22:01:30.760Z,8.63
2017-07-25T22:04:03.416Z,8.75
2017-07-25T22:06:30.103Z,10.90
2017-07-25T22:08:56.926Z,9.68
2017-07-25T22:11:23.608Z,8.70
2017-07-25T22:13:50.271Z,7.47
2017-07-25T22:16:16.923Z,8.77
2017-07-25T22:18:43.579Z,7.10
2017-07-25T22:21:10.239Z,6.90
2017-07-25T22:23:36.906Z,7.35
2017-07-25T22:26:03.557Z,7.30
2017-07-25T22:28:30.236Z,7.20
2017-07-25T22:30:56.887Z,9.35
2017-07-25T22:33:23.581Z,7.97
2017-07-25T22:35:50.231Z,6.43
2017-07-25T22:38:16.883Z,7.50
2017-07-25T22:40:43.541Z,6.78
2017-07-25T22:43:10.196Z,6.82
2017-07-25T22:45:36.851Z,6.60
2017-07-25T22:48:03.511Z,8.77
2017-07-25T22:50:30.164Z,8.52
2017-07-25T22:52:56.824Z,7.07
2017-07-25T22:55:23.504Z,6.82
2017-07-25T22:57:50.160Z,6.40
2017-07-25T23:00:16.839Z,8.13
2017-07-25T23:02:43.496Z,8.18
2017-07-25T23:05:10.187Z,8.20
2017-07-25T23:07:36.843Z,6.72
2017-07-25T23:10:03.515Z,7.68
2017-07-25T23:12:30.172Z,8.63
2017-07-25T23:14:57.051Z,7.40
2017-07-25T23:17:23.718Z,7.47
2017-07-25T23:19:50.371Z,7.40
2017-07-25T23:22:17.028Z,7.95
2017-07-25T23:24:43.691Z,7.50
2017-07-25T23:27:10.374Z,6.32
2017-07-25T23:29:37.028Z,7.28
2017-07-25T23:32:03.713Z,10.07
2017-07-25T23:34:30.367Z,7.28
2017-07-25T23:36:57.019Z,7.43
2017-07-25T23:39:23.676Z,7.15
2017-07-25T23:41:50.331Z,7.78
2017-07-25T23:44:17.000Z,7.93
2017-07-25T23:46:43.655Z,7.85
2017-07-25T23:49:10.311Z,7.50
2017-07-25T23:51:36.967Z,6.62
2017-07-25T23:54:03.662Z,8.40
2017-07-25T23:56:30.715Z,6.65
2017-07-25T23:58:57.371Z,7.55
